Time;durP1;ratioP1;P1;durP2;ratioP2;P2;SDS_P1;SDS_P2;PMS_P1;PMS_P2;Temp;Humidity;BMP_temperature;BMP_pressure;BME280_temperature;BME280_humidity;BME280_pressure;Samples;Min_cycle;Max_cycle;Signal;HPM_P1;HPM_P2
2022/03/29 00:00:20;;;;;;;0.20;0.20;;;;;;;;;;1843834;76;26317;-64
2022/03/29 00:02:47;;;;;;;0.20;0.20;;;;;;;;;;1844719;77;26306;-63
2022/03/29 00:05:14;;;;;;;0.50;0.10;;;;;;;;;;1819946;79;26582;-65
2022/03/29 00:07:42;;;;;;;0.30;0.30;;;;;;;;;;1822473;77;26329;-63
2022/03/29 00:10:09;;;;;;;0.20;0.20;;;;;;;;;;1804883;79;26380;-63
2022/03/29 00:12:37;;;;;;;0.15;0.15;;;;;;;;;;1834766;77;26231;-64
2022/03/29 00:15:06;;;;;;;0.20;0.20;;;;;;;;;;1791232;79;26274;-63
2022/03/29 00:17:33;;;;;;;0.33;0.30;;;;;;;;;;1824025;77;26329;-63
2022/03/29 00:20:01;;;;;;;0.13;0.13;;;;;;;;;;1767297;78;26746;-64
2022/03/29 00:22:28;;;;;;;0.30;0.30;;;;;;;;;;1811609;78;26370;-64
2022/03/29 00:24:55;;;;;;;0.28;0.28;;;;;;;;;;1769461;80;26327;-67
2022/03/29 00:27:23;;;;;;;0.20;0.20;;;;;;;;;;1788698;80;26267;-67
2022/03/29 00:29:51;;;;;;;0.20;0.20;;;;;;;;;;1788760;80;26893;-65
2022/03/29 00:32:18;;;;;;;0.20;0.20;;;;;;;;;;1770153;79;26283;-64
2022/03/29 00:34:45;;;;;;;0.30;0.20;;;;;;;;;;1785243;79;26277;-64
2022/03/29 00:37:12;;;;;;;0.23;0.23;;;;;;;;;;1769654;80;26359;-63
2022/03/29 00:39:40;;;;;;;0.23;0.23;;;;;;;;;;1786113;80;26380;-64
2022/03/29 00:42:07;;;;;;;0.10;0.10;;;;;;;;;;1798200;79;26278;-63
2022/03/29 00:44:36;;;;;;;0.10;0.10;;;;;;;;;;1780964;79;26261;-64
2022/03/29 00:47:03;;;;;;;0.37;0.20;;;;;;;;;;1803700;79;26275;-64
2022/03/29 00:49:31;;;;;;;0.33;0.33;;;;;;;;;;1777122;80;26795;-64
2022/03/29 00:52:00;;;;;;;0.13;0.13;;;;;;;;;;1807995;78;26256;-67
2022/03/29 00:54:28;;;;;;;0.17;0.17;;;;;;;;;;1755193;80;26266;-64
2022/03/29 00:56:59;;;;;;;0.15;0.13;;;;;;;;;;1803646;78;26294;-65
2022/03/29 00:59:27;;;;;;;0.20;0.20;;;;;;;;;;1778347;79;26274;-64
2022/03/29 01:01:57;;;;;;;0.17;0.17;;;;;;;;;;1768510;80;26254;-63
2022/03/29 01:04:28;;;;;;;0.30;0.30;;;;;;;;;;1807450;79;26352;-60
2022/03/29 01:06:59;;;;;;;1.10;0.20;;;;;;;;;;1779009;79;26877;-64
2022/03/29 01:09:28;;;;;;;0.10;0.10;;;;;;;;;;1815332;77;26718;-64
2022/03/29 01:11:56;;;;;;;0.20;0.20;;;;;;;;;;1790194;78;26668;-64
2022/03/29 01:14:25;;;;;;;0.30;0.30;;;;;;;;;;1808847;79;26240;-64
2022/03/29 01:19:39;;;;;;;0.15;0.15;;;;;;;;;;1786507;79;27543;-64
2022/03/29 01:22:07;;;;;;;0.37;0.37;;;;;;;;;;1776864;80;26262;-63
2022/03/29 01:24:35;;;;;;;0.40;0.40;;;;;;;;;;1769239;79;26313;-64
2022/03/29 01:27:07;;;;;;;0.15;0.15;;;;;;;;;;1762475;80;26652;-64
2022/03/29 01:29:35;;;;;;;0.55;0.30;;;;;;;;;;1781310;79;26293;-64
2022/03/29 01:32:04;;;;;;;0.30;0.30;;;;;;;;;;1781958;79;26278;-64
2022/03/29 01:34:33;;;;;;;0.10;0.10;;;;;;;;;;1771310;80;26345;-63
2022/03/29 01:37:00;;;;;;;0.17;0.17;;;;;;;;;;1800787;78;26346;-63
2022/03/29 01:39:27;;;;;;;0.80;0.30;;;;;;;;;;1772772;79;26267;-64
2022/03/29 01:41:55;;;;;;;1.55;0.10;;;;;;;;;;1769807;79;26882;-63
2022/03/29 01:44:22;;;;;;;0.13;0.13;;;;;;;;;;1772043;80;26837;-61
2022/03/29 01:46:50;;;;;;;0.13;0.13;;;;;;;;;;1785612;80;26368;-63
2022/03/29 01:49:18;;;;;;;0.20;0.20;;;;;;;;;;1769044;80;26387;-67
2022/03/29 01:51:46;;;;;;;0.20;0.20;;;;;;;;;;1784939;79;26831;-64
2022/03/29 01:54:13;;;;;;;0.30;0.30;;;;;;;;;;1794656;79;26255;-63
2022/03/29 01:56:41;;;;;;;0.03;0.03;;;;;;;;;;1784222;80;26643;-63
2022/03/29 01:59:11;;;;;;;0.40;0.40;;;;;;;;;;1787001;79;26283;-64
2022/03/29 02:01:42;;;;;;;0.20;0.20;;;;;;;;;;1791116;79;26752;-64
2022/03/29 02:04:10;;;;;;;0.10;0.10;;;;;;;;;;1780751;79;26684;-64
2022/03/29 02:06:37;;;;;;;0.20;0.20;;;;;;;;;;1778917;80;26313;-65
2022/03/29 02:09:08;;;;;;;0.23;0.20;;;;;;;;;;1810276;78;26368;-67
2022/03/29 02:11:36;;;;;;;0.20;0.20;;;;;;;;;;1811996;78;26738;-64
2022/03/29 02:14:03;;;;;;;0.53;0.10;;;;;;;;;;1782160;79;26263;-66
2022/03/29 02:16:31;;;;;;;0.15;0.15;;;;;;;;;;1782776;79;26388;-64
2022/03/29 02:18:58;;;;;;;0.20;0.20;;;;;;;;;;1812733;79;26295;-64
2022/03/29 02:21:25;;;;;;;0.20;0.20;;;;;;;;;;1804204;79;26306;-62
2022/03/29 02:23:53;;;;;;;0.30;0.30;;;;;;;;;;1770203;80;26318;-63
2022/03/29 02:32:10;;;;;;;0.20;0.20;;;;;;;;;;1718618;82;26376;-67
2022/03/29 02:34:38;;;;;;;0.20;0.20;;;;;;;;;;1799698;78;26271;-67
2022/03/29 02:37:05;;;;;;;0.20;0.20;;;;;;;;;;1831967;78;26251;-66
2022/03/29 02:39:32;;;;;;;0.20;0.20;;;;;;;;;;1843587;77;26387;-65
2022/03/29 02:41:59;;;;;;;0.15;0.15;;;;;;;;;;1850882;76;26699;-64
2022/03/29 02:44:27;;;;;;;0.10;0.10;;;;;;;;;;1845319;78;26727;-63
2022/03/29 02:46:56;;;;;;;0.10;0.10;;;;;;;;;;1833523;78;26258;-64
2022/03/29 02:49:25;;;;;;;0.20;0.20;;;;;;;;;;1836551;76;26276;-64
2022/03/29 02:51:53;;;;;;;0.10;0.10;;;;;;;;;;1833882;78;26538;-64
2022/03/29 02:54:20;;;;;;;0.20;0.20;;;;;;;;;;1848372;76;26207;-63
2022/03/29 02:56:50;;;;;;;0.20;0.20;;;;;;;;;;1823339;78;26256;-64
2022/03/29 02:59:17;;;;;;;0.55;0.25;;;;;;;;;;1837682;77;26338;-61
2022/03/29 03:01:44;;;;;;;0.10;0.10;;;;;;;;;;1840040;76;26378;-66
2022/03/29 03:04:13;;;;;;;0.10;0.10;;;;;;;;;;1844862;76;26754;-66
2022/03/29 03:06:41;;;;;;;0.30;0.30;;;;;;;;;;1835519;76;26318;-64
2022/03/29 03:09:09;;;;;;;0.15;0.15;;;;;;;;;;1840584;77;26302;-64
2022/03/29 03:11:50;;;;;;;0.20;0.20;;;;;;;;;;1836980;78;26196;-65
2022/03/29 03:14:19;;;;;;;0.17;0.17;;;;;;;;;;1841347;77;26309;-64
2022/03/29 03:16:46;;;;;;;0.13;0.13;;;;;;;;;;1839048;76;26252;-67
2022/03/29 03:19:13;;;;;;;0.20;0.20;;;;;;;;;;1844288;77;26259;-63
2022/03/29 03:21:41;;;;;;;0.30;0.30;;;;;;;;;;1835369;78;26212;-61
2022/03/29 03:24:08;;;;;;;0.20;0.20;;;;;;;;;;1843343;76;26270;-64
2022/03/29 03:26:35;;;;;;;0.20;0.20;;;;;;;;;;1844582;76;26287;-66
2022/03/29 03:29:03;;;;;;;0.10;0.10;;;;;;;;;;1851853;77;26317;-64
2022/03/29 03:31:30;;;;;;;0.30;0.30;;;;;;;;;;1852014;77;26243;-65
2022/03/29 03:34:06;;;;;;;0.17;0.17;;;;;;;;;;1851706;76;26305;-63
2022/03/29 03:36:31;;;;;;;0.20;0.20;;;;;;;;;;1845726;76;26691;-66
2022/03/29 03:38:59;;;;;;;0.10;0.10;;;;;;;;;;1850632;76;26308;-62
2022/03/29 03:41:26;;;;;;;0.98;0.20;;;;;;;;;;1867788;76;26335;-63
2022/03/29 03:43:54;;;;;;;0.25;0.25;;;;;;;;;;1832545;77;26329;-63
2022/03/29 03:46:21;;;;;;;0.20;0.17;;;;;;;;;;1849139;77;26561;-64
2022/03/29 03:48:49;;;;;;;0.70;0.17;;;;;;;;;;1851375;76;26322;-66
2022/03/29 03:51:16;;;;;;;0.20;0.20;;;;;;;;;;1840953;77;26332;-63
2022/03/29 03:53:44;;;;;;;0.17;0.17;;;;;;;;;;1847359;77;26674;-63
2022/03/29 03:56:11;;;;;;;0.20;0.20;;;;;;;;;;1841962;77;26325;-64
2022/03/29 03:58:38;;;;;;;0.30;0.30;;;;;;;;;;1851503;76;26278;-67
2022/03/29 04:01:06;;;;;;;0.20;0.20;;;;;;;;;;1854679;76;26334;-67
2022/03/29 04:03:33;;;;;;;0.42;0.30;;;;;;;;;;1838207;76;26267;-66
2022/03/29 04:06:00;;;;;;;0.47;0.20;;;;;;;;;;1842181;76;26312;-66
2022/03/29 04:08:28;;;;;;;0.10;0.10;;;;;;;;;;1854655;76;26252;-63
2022/03/29 04:10:56;;;;;;;0.30;0.30;;;;;;;;;;1836994;76;26971;-64
2022/03/29 04:13:24;;;;;;;0.20;0.20;;;;;;;;;;1846972;76;25757;-63
2022/03/29 04:15:54;;;;;;;0.55;0.30;;;;;;;;;;1842605;76;26262;-63
2022/03/29 04:18:32;;;;;;;0.25;0.25;;;;;;;;;;1849720;77;26204;-64
2022/03/29 04:21:13;;;;;;;0.30;0.30;;;;;;;;;;1847881;77;26728;-64
2022/03/29 04:26:30;;;;;;;1.95;0.30;;;;;;;;;;1848699;76;26263;-67
2022/03/29 04:28:58;;;;;;;0.40;0.40;;;;;;;;;;1847902;77;26251;-65
2022/03/29 04:31:25;;;;;;;0.17;0.17;;;;;;;;;;1854514;76;26346;-63
2022/03/29 04:33:53;;;;;;;0.30;0.30;;;;;;;;;;1850672;77;26691;-63
2022/03/29 04:36:20;;;;;;;0.23;0.23;;;;;;;;;;1846059;76;26274;-63
2022/03/29 04:38:47;;;;;;;0.40;0.40;;;;;;;;;;1851038;77;26331;-63
2022/03/29 04:41:15;;;;;;;0.28;0.25;;;;;;;;;;1854311;76;26264;-64
2022/03/29 04:43:42;;;;;;;0.33;0.33;;;;;;;;;;1852130;76;26801;-63
2022/03/29 04:46:09;;;;;;;0.37;0.37;;;;;;;;;;1851150;77;26311;-63
2022/03/29 04:51:25;;;;;;;0.47;0.40;;;;;;;;;;1826243;77;26707;-63
2022/03/29 04:53:52;;;;;;;0.20;0.20;;;;;;;;;;1830433;77;26831;-65
2022/03/29 04:56:19;;;;;;;0.30;0.30;;;;;;;;;;1831934;77;26709;-63
2022/03/29 04:58:46;;;;;;;0.30;0.30;;;;;;;;;;1823439;77;27005;-63
2022/03/29 05:01:14;;;;;;;0.30;0.30;;;;;;;;;;1829888;77;26293;-63
2022/03/29 05:03:42;;;;;;;0.65;0.28;;;;;;;;;;1826248;77;26697;-63
2022/03/29 05:06:09;;;;;;;2.08;0.40;;;;;;;;;;1825566;77;26363;-63
2022/03/29 05:08:37;;;;;;;0.30;0.30;;;;;;;;;;1828226;78;26262;-66
2022/03/29 05:11:04;;;;;;;0.50;0.40;;;;;;;;;;1838125;77;26235;-63
2022/03/29 05:13:31;;;;;;;1.55;0.40;;;;;;;;;;1853753;77;26317;-65
2022/03/29 05:15:59;;;;;;;0.53;0.40;;;;;;;;;;1855888;77;26337;-65
2022/03/29 05:18:26;;;;;;;0.30;0.30;;;;;;;;;;1855898;77;26255;-67
2022/03/29 05:20:53;;;;;;;0.57;0.40;;;;;;;;;;1841973;76;26222;-66
2022/03/29 05:23:22;;;;;;;0.30;0.30;;;;;;;;;;1853075;76;26361;-63
2022/03/29 05:25:49;;;;;;;2.52;0.30;;;;;;;;;;1848666;77;26300;-66
2022/03/29 05:28:16;;;;;;;0.30;0.30;;;;;;;;;;1838529;77;25956;-66
2022/03/29 05:30:44;;;;;;;0.82;0.40;;;;;;;;;;1854699;76;26897;-66
2022/03/29 05:33:15;;;;;;;0.40;0.40;;;;;;;;;;1832861;77;26791;-65
2022/03/29 05:35:40;;;;;;;2.45;0.40;;;;;;;;;;1855254;77;26279;-65
2022/03/29 05:38:07;;;;;;;0.30;0.30;;;;;;;;;;1857295;76;26260;-63
2022/03/29 05:40:34;;;;;;;2.20;0.50;;;;;;;;;;1854835;77;26677;-65
2022/03/29 05:43:01;;;;;;;0.40;0.28;;;;;;;;;;1858676;76;26742;-63
2022/03/29 05:45:29;;;;;;;0.37;0.30;;;;;;;;;;1826261;77;26776;-67
2022/03/29 05:50:42;;;;;;;2.60;0.50;;;;;;;;;;1842750;76;26810;-63
2022/03/29 05:53:09;;;;;;;0.30;0.30;;;;;;;;;;1828788;78;26268;-63
2022/03/29 05:55:37;;;;;;;0.55;0.45;;;;;;;;;;1832820;77;26260;-66
2022/03/29 05:58:04;;;;;;;1.17;0.40;;;;;;;;;;1837699;77;26251;-63
2022/03/29 06:00:31;;;;;;;1.27;0.42;;;;;;;;;;1828722;77;26577;-64
2022/03/29 06:03:18;;;;;;;0.40;0.40;;;;;;;;;;1831046;77;26343;-64
2022/03/29 06:05:46;;;;;;;0.33;0.30;;;;;;;;;;1802622;78;26288;-65
2022/03/29 06:08:14;;;;;;;0.42;0.40;;;;;;;;;;1794503;78;26715;-64
2022/03/29 06:10:41;;;;;;;0.78;0.30;;;;;;;;;;1804027;78;26305;-63
2022/03/29 06:13:10;;;;;;;0.72;0.40;;;;;;;;;;1801957;78;26281;-64
2022/03/29 06:15:37;;;;;;;0.37;0.37;;;;;;;;;;1806536;78;26312;-63
2022/03/29 06:18:05;;;;;;;0.40;0.40;;;;;;;;;;1813245;78;26323;-63
2022/03/29 06:20:32;;;;;;;0.30;0.30;;;;;;;;;;1811042;78;26363;-66
2022/03/29 06:23:00;;;;;;;0.50;0.50;;;;;;;;;;1817029;78;26344;-63
2022/03/29 06:25:27;;;;;;;0.37;0.37;;;;;;;;;;1824335;78;26272;-64
2022/03/29 06:27:55;;;;;;;0.23;0.23;;;;;;;;;;1810094;78;26358;-63
2022/03/29 06:30:22;;;;;;;0.40;0.40;;;;;;;;;;1803223;78;26351;-64
2022/03/29 06:32:51;;;;;;;0.40;0.40;;;;;;;;;;1803222;78;26790;-63
2022/03/29 06:35:21;;;;;;;1.72;0.55;;;;;;;;;;1817750;78;26811;-64
2022/03/29 06:37:49;;;;;;;0.30;0.30;;;;;;;;;;1803290;78;26285;-64
2022/03/29 06:40:17;;;;;;;0.30;0.30;;;;;;;;;;1804381;78;26362;-66
2022/03/29 06:42:44;;;;;;;0.30;0.30;;;;;;;;;;1793485;78;26319;-63
2022/03/29 06:45:12;;;;;;;0.20;0.20;;;;;;;;;;1802553;78;26230;-66
2022/03/29 06:47:39;;;;;;;0.20;0.20;;;;;;;;;;1804810;78;26595;-64
2022/03/29 06:50:08;;;;;;;0.50;0.50;;;;;;;;;;1802190;78;26354;-63
2022/03/29 06:52:37;;;;;;;0.28;0.25;;;;;;;;;;1798938;78;26311;-68
2022/03/29 06:55:06;;;;;;;0.60;0.60;;;;;;;;;;1798360;78;26300;-59
2022/03/29 06:57:33;;;;;;;0.40;0.40;;;;;;;;;;1802800;79;27532;-62
2022/03/29 07:00:02;;;;;;;1.72;0.40;;;;;;;;;;1808077;78;26259;-62
2022/03/29 07:02:29;;;;;;;0.72;0.30;;;;;;;;;;1797720;78;26299;-61
2022/03/29 07:04:56;;;;;;;0.60;0.30;;;;;;;;;;1820260;77;26426;-54
2022/03/29 07:07:24;;;;;;;0.55;0.30;;;;;;;;;;1828175;77;26220;-57
2022/03/29 07:12:47;;;;;;;0.30;0.30;;;;;;;;;;1828507;77;26779;-53
2022/03/29 07:15:15;;;;;;;1.75;0.30;;;;;;;;;;1805022;77;26265;-59
2022/03/29 07:17:43;;;;;;;3.17;0.30;;;;;;;;;;1820106;77;26744;-58
2022/03/29 07:20:11;;;;;;;0.42;0.30;;;;;;;;;;1821540;78;26258;-51
2022/03/29 07:22:38;;;;;;;0.90;0.28;;;;;;;;;;1841219;77;26267;-55
2022/03/29 07:25:06;;;;;;;1.20;0.42;;;;;;;;;;1835970;77;26266;-54
2022/03/29 07:27:33;;;;;;;0.23;0.23;;;;;;;;;;1825586;77;26360;-50
2022/03/29 07:30:00;;;;;;;1.00;0.30;;;;;;;;;;1825546;78;26824;-54
2022/03/29 07:32:28;;;;;;;1.65;0.57;;;;;;;;;;1828246;78;26345;-56
2022/03/29 07:34:56;;;;;;;0.28;0.20;;;;;;;;;;1833639;77;27254;-50
2022/03/29 07:37:24;;;;;;;0.43;0.30;;;;;;;;;;1817559;77;28238;-50
2022/03/29 07:39:54;;;;;;;0.55;0.30;;;;;;;;;;1823286;77;28831;-51
2022/03/29 07:42:22;;;;;;;0.30;0.30;;;;;;;;;;1812509;77;28275;-56
2022/03/29 07:44:50;;;;;;;1.10;0.30;;;;;;;;;;1825303;77;26286;-57
2022/03/29 07:47:21;;;;;;;0.20;0.20;;;;;;;;;;1825774;77;26290;-56
2022/03/29 07:49:49;;;;;;;0.20;0.20;;;;;;;;;;1821566;77;26321;-50
2022/03/29 07:52:16;;;;;;;0.55;0.30;;;;;;;;;;1825537;77;26324;-54
2022/03/29 07:54:43;;;;;;;0.20;0.20;;;;;;;;;;1826901;77;26337;-58
2022/03/29 07:57:10;;;;;;;0.30;0.30;;;;;;;;;;1825784;78;26314;-50
2022/03/29 07:59:38;;;;;;;0.20;0.20;;;;;;;;;;1825357;77;26279;-60
2022/03/29 08:02:05;;;;;;;0.20;0.20;;;;;;;;;;1823259;77;26333;-61
2022/03/29 08:04:33;;;;;;;0.20;0.20;;;;;;;;;;1826222;78;26353;-60
2022/03/29 08:07:00;;;;;;;0.30;0.30;;;;;;;;;;1846965;76;26262;-51
2022/03/29 08:09:28;;;;;;;0.20;0.20;;;;;;;;;;1844227;76;26360;-55
2022/03/29 08:11:56;;;;;;;0.30;0.30;;;;;;;;;;1835224;77;26340;-47
2022/03/29 08:14:25;;;;;;;0.40;0.40;;;;;;;;;;1839193;77;26431;-60
2022/03/29 08:16:53;;;;;;;0.33;0.20;;;;;;;;;;1833450;77;26355;-58
2022/03/29 08:19:21;;;;;;;0.28;0.28;;;;;;;;;;1836597;76;26780;-60
2022/03/29 08:21:49;;;;;;;2.00;0.30;;;;;;;;;;1823662;77;28173;-54
2022/03/29 08:24:18;;;;;;;2.17;0.45;;;;;;;;;;1827579;77;26353;-61
2022/03/29 08:26:46;;;;;;;1.20;0.30;;;;;;;;;;1837534;77;26779;-59
2022/03/29 08:29:15;;;;;;;0.30;0.30;;;;;;;;;;1834592;77;26286;-59
2022/03/29 08:31:44;;;;;;;0.33;0.30;;;;;;;;;;1839549;77;26726;-56
2022/03/29 08:34:12;;;;;;;1.40;0.33;;;;;;;;;;1828652;76;26296;-56
2022/03/29 08:36:39;;;;;;;0.23;0.23;;;;;;;;;;1834230;76;26282;-57
2022/03/29 08:39:07;;;;;;;0.20;0.20;;;;;;;;;;1834064;78;26266;-57
2022/03/29 08:41:37;;;;;;;0.25;0.25;;;;;;;;;;1832191;77;26793;-50
2022/03/29 08:44:05;;;;;;;2.10;0.57;;;;;;;;;;1835788;77;26736;-58
2022/03/29 08:46:38;;;;;;;0.20;0.20;;;;;;;;;;1835409;76;26568;-50
2022/03/29 08:49:08;;;;;;;3.35;0.40;;;;;;;;;;1833889;77;26848;-57
2022/03/29 08:51:36;;;;;;;0.40;0.40;;;;;;;;;;1843838;76;26245;-53
2022/03/29 08:54:04;;;;;;;0.30;0.30;;;;;;;;;;1833620;77;26356;-55
2022/03/29 08:56:31;;;;;;;0.62;0.28;;;;;;;;;;1836808;76;26415;-50
2022/03/29 08:58:59;;;;;;;2.35;0.30;;;;;;;;;;1833153;77;26276;-54
2022/03/29 09:01:27;;;;;;;2.20;0.45;;;;;;;;;;1834950;77;27512;-54
2022/03/29 09:04:04;;;;;;;0.30;0.30;;;;;;;;;;1837932;77;26282;-48
2022/03/29 09:06:32;;;;;;;0.30;0.30;;;;;;;;;;1825333;77;26310;-62
2022/03/29 09:08:59;;;;;;;0.30;0.30;;;;;;;;;;1826055;77;26274;-54
2022/03/29 09:11:28;;;;;;;4.80;1.17;;;;;;;;;;1817941;78;26647;-61
2022/03/29 09:14:02;;;;;;;2.40;0.30;;;;;;;;;;1801999;78;28229;-53
2022/03/29 09:16:38;;;;;;;0.30;0.30;;;;;;;;;;1818494;77;26216;-56
2022/03/29 09:19:05;;;;;;;0.85;0.30;;;;;;;;;;1804412;77;26723;-48
2022/03/29 09:21:42;;;;;;;0.30;0.30;;;;;;;;;;1818305;78;26266;-52
2022/03/29 09:24:11;;;;;;;0.20;0.20;;;;;;;;;;1808937;79;39108;-47
2022/03/29 09:26:43;;;;;;;0.62;0.40;;;;;;;;;;1819368;77;26903;-55
2022/03/29 09:29:15;;;;;;;1.45;0.40;;;;;;;;;;1817959;77;26313;-54
2022/03/29 09:31:42;;;;;;;0.30;0.30;;;;;;;;;;1816452;79;26300;-52
2022/03/29 09:34:11;;;;;;;0.30;0.30;;;;;;;;;;1820029;79;26643;-51
2022/03/29 09:36:43;;;;;;;1.02;0.30;;;;;;;;;;1803531;79;28256;-50
2022/03/29 09:39:12;;;;;;;0.30;0.30;;;;;;;;;;1807470;77;28154;-49
2022/03/29 09:41:40;;;;;;;1.47;0.40;;;;;;;;;;1833618;77;26766;-60
2022/03/29 09:44:12;;;;;;;0.30;0.30;;;;;;;;;;1818580;77;26258;-53
2022/03/29 09:47:07;;;;;;;1.75;0.33;;;;;;;;;;1807300;79;28225;-47
2022/03/29 09:49:53;;;;;;;1.50;0.47;;;;;;;;;;1793571;77;28241;-47
2022/03/29 09:52:23;;;;;;;0.70;0.40;;;;;;;;;;1820818;78;26295;-48
2022/03/29 09:54:52;;;;;;;1.92;0.40;;;;;;;;;;1820060;79;26650;-52
2022/03/29 09:57:21;;;;;;;0.20;0.20;;;;;;;;;;1793326;77;26313;-55
2022/03/29 09:59:49;;;;;;;0.30;0.30;;;;;;;;;;1815918;78;26659;-57
2022/03/29 10:02:17;;;;;;;0.30;0.30;;;;;;;;;;1812969;77;26564;-49
2022/03/29 10:04:44;;;;;;;0.85;0.30;;;;;;;;;;1803632;78;26337;-58
2022/03/29 10:07:12;;;;;;;0.90;0.20;;;;;;;;;;1845237;76;26258;-59
2022/03/29 10:09:42;;;;;;;0.20;0.20;;;;;;;;;;1840504;76;26319;-57
2022/03/29 10:12:09;;;;;;;0.30;0.30;;;;;;;;;;1837595;76;27491;-58
2022/03/29 10:14:39;;;;;;;0.20;0.20;;;;;;;;;;1839442;77;26311;-59
2022/03/29 10:17:07;;;;;;;0.60;0.20;;;;;;;;;;1843208;77;26975;-59
2022/03/29 10:19:41;;;;;;;0.30;0.30;;;;;;;;;;1839977;77;25763;-49
2022/03/29 10:22:08;;;;;;;1.00;0.33;;;;;;;;;;1841758;76;26671;-52
2022/03/29 10:24:37;;;;;;;0.30;0.30;;;;;;;;;;1840372;77;26338;-59
2022/03/29 10:27:05;;;;;;;0.28;0.28;;;;;;;;;;1839322;77;26925;-62
2022/03/29 10:29:33;;;;;;;0.10;0.10;;;;;;;;;;1840936;77;26363;-54
2022/03/29 10:32:01;;;;;;;0.20;0.20;;;;;;;;;;1839834;77;26577;-58
2022/03/29 10:34:37;;;;;;;0.20;0.20;;;;;;;;;;1840408;77;26737;-56
2022/03/29 10:37:11;;;;;;;2.85;0.33;;;;;;;;;;1839257;77;26335;-60
2022/03/29 10:39:45;;;;;;;0.95;0.40;;;;;;;;;;1841498;76;26366;-50
2022/03/29 10:42:26;;;;;;;0.30;0.30;;;;;;;;;;1833190;76;26951;-57
2022/03/29 10:45:05;;;;;;;1.65;0.20;;;;;;;;;;1834379;76;26905;-55
2022/03/29 10:47:33;;;;;;;0.30;0.30;;;;;;;;;;1830842;76;26425;-63
2022/03/29 10:50:01;;;;;;;0.55;0.50;;;;;;;;;;1828927;76;26298;-64
2022/03/29 10:52:30;;;;;;;0.23;0.23;;;;;;;;;;1833002;76;26290;-57
2022/03/29 10:55:14;;;;;;;0.23;0.20;;;;;;;;;;1834120;76;26681;-61
2022/03/29 10:57:41;;;;;;;0.65;0.40;;;;;;;;;;1775120;79;26335;-63
2022/03/29 11:00:21;;;;;;;0.40;0.40;;;;;;;;;;1808251;76;26811;-54
2022/03/29 11:03:04;;;;;;;0.28;0.28;;;;;;;;;;1838844;76;26355;-58
2022/03/29 11:05:31;;;;;;;0.20;0.20;;;;;;;;;;1836639;76;26296;-60
2022/03/29 11:08:11;;;;;;;0.70;0.33;;;;;;;;;;1803373;78;27176;-61
2022/03/29 11:10:43;;;;;;;0.62;0.30;;;;;;;;;;1797136;78;26689;-56
2022/03/29 11:13:24;;;;;;;0.20;0.20;;;;;;;;;;1802139;78;26246;-57
2022/03/29 11:15:51;;;;;;;0.30;0.30;;;;;;;;;;1804805;78;26255;-61
2022/03/29 11:18:33;;;;;;;0.40;0.40;;;;;;;;;;1812534;78;26327;-54
2022/03/29 11:21:04;;;;;;;0.62;0.23;;;;;;;;;;1799013;78;26364;-59
2022/03/29 11:23:39;;;;;;;0.20;0.20;;;;;;;;;;1801976;78;26333;-66
2022/03/29 11:26:11;;;;;;;0.20;0.20;;;;;;;;;;1802983;78;26351;-62
2022/03/29 11:28:39;;;;;;;0.20;0.20;;;;;;;;;;1796670;78;26309;-58
2022/03/29 11:31:07;;;;;;;0.30;0.30;;;;;;;;;;1801515;78;26267;-56
2022/03/29 11:33:34;;;;;;;0.20;0.20;;;;;;;;;;1803268;78;26285;-62
2022/03/29 11:36:03;;;;;;;0.10;0.10;;;;;;;;;;1803304;78;26301;-55
2022/03/29 11:38:32;;;;;;;1.55;0.30;;;;;;;;;;1810985;79;26250;-51
2022/03/29 11:41:00;;;;;;;0.20;0.20;;;;;;;;;;1803032;78;26301;-58
2022/03/29 11:43:28;;;;;;;1.10;0.30;;;;;;;;;;1803851;78;26351;-50
2022/03/29 11:45:56;;;;;;;0.30;0.30;;;;;;;;;;1797069;79;28272;-60
2022/03/29 11:48:25;;;;;;;0.20;0.20;;;;;;;;;;1802039;79;26732;-53
2022/03/29 11:50:54;;;;;;;0.20;0.15;;;;;;;;;;1806014;78;26277;-55
2022/03/29 11:53:23;;;;;;;0.30;0.30;;;;;;;;;;1806092;78;26364;-62
2022/03/29 11:55:54;;;;;;;0.30;0.30;;;;;;;;;;1810813;78;26259;-62
2022/03/29 11:58:23;;;;;;;0.30;0.30;;;;;;;;;;1801315;78;26266;-54
2022/03/29 12:00:51;;;;;;;0.28;0.28;;;;;;;;;;1806533;78;26273;-54
2022/03/29 12:03:28;;;;;;;0.30;0.30;;;;;;;;;;1821590;78;26360;-48
2022/03/29 12:06:09;;;;;;;0.20;0.20;;;;;;;;;;1803250;78;26930;-60
2022/03/29 12:08:47;;;;;;;0.17;0.17;;;;;;;;;;1809645;78;26329;-60
2022/03/29 12:11:16;;;;;;;0.20;0.20;;;;;;;;;;1799831;78;26321;-58
2022/03/29 12:13:45;;;;;;;0.25;0.25;;;;;;;;;;1802595;78;26277;-60
2022/03/29 12:16:17;;;;;;;0.20;0.20;;;;;;;;;;1806499;78;26301;-58
2022/03/29 12:18:45;;;;;;;0.10;0.10;;;;;;;;;;1785341;79;26414;-54
2022/03/29 12:21:14;;;;;;;0.20;0.20;;;;;;;;;;1813432;78;26275;-62
2022/03/29 12:23:44;;;;;;;0.20;0.20;;;;;;;;;;1803666;78;26296;-53
2022/03/29 12:26:13;;;;;;;0.20;0.20;;;;;;;;;;1804584;78;26299;-55
2022/03/29 12:28:42;;;;;;;0.57;0.30;;;;;;;;;;1805106;78;26370;-55
2022/03/29 12:31:13;;;;;;;0.30;0.30;;;;;;;;;;1804422;78;26285;-51
2022/03/29 12:33:41;;;;;;;0.28;0.28;;;;;;;;;;1807929;78;26284;-51
2022/03/29 12:36:10;;;;;;;0.10;0.10;;;;;;;;;;1801517;78;26289;-52
2022/03/29 12:38:41;;;;;;;0.85;0.23;;;;;;;;;;1803795;78;26388;-57
2022/03/29 12:41:08;;;;;;;1.67;0.30;;;;;;;;;;1803382;78;26262;-51
2022/03/29 12:43:36;;;;;;;0.17;0.17;;;;;;;;;;1803376;78;27520;-55
2022/03/29 12:46:09;;;;;;;0.20;0.20;;;;;;;;;;1800719;78;27178;-58
2022/03/29 12:48:37;;;;;;;0.20;0.20;;;;;;;;;;1808498;78;26291;-55
2022/03/29 12:51:07;;;;;;;0.57;0.25;;;;;;;;;;1803295;78;26271;-52
2022/03/29 12:53:35;;;;;;;0.10;0.10;;;;;;;;;;1789931;78;26316;-53
2022/03/29 12:56:09;;;;;;;0.30;0.30;;;;;;;;;;1810163;78;26278;-54
2022/03/29 12:58:34;;;;;;;0.13;0.13;;;;;;;;;;1807579;78;26352;-52
2022/03/29 13:01:05;;;;;;;0.55;0.20;;;;;;;;;;1802319;78;26992;-52
2022/03/29 13:03:39;;;;;;;0.20;0.20;;;;;;;;;;1800553;78;26297;-51
2022/03/29 13:06:07;;;;;;;0.68;0.40;;;;;;;;;;1806140;78;26710;-52
2022/03/29 13:08:34;;;;;;;0.65;0.13;;;;;;;;;;1813143;78;26773;-54
2022/03/29 13:11:03;;;;;;;0.47;0.30;;;;;;;;;;1824997;77;26321;-53
2022/03/29 13:13:31;;;;;;;0.53;0.30;;;;;;;;;;1828981;77;26218;-48
2022/03/29 13:16:01;;;;;;;0.65;0.23;;;;;;;;;;1837122;77;26324;-60
2022/03/29 13:18:32;;;;;;;0.28;0.28;;;;;;;;;;1826750;78;26390;-51
2022/03/29 13:21:07;;;;;;;0.30;0.30;;;;;;;;;;1822748;77;26688;-54
2022/03/29 13:23:39;;;;;;;3.67;0.30;;;;;;;;;;1827287;77;26788;-56
2022/03/29 13:26:07;;;;;;;0.15;0.15;;;;;;;;;;1825602;77;26270;-56
2022/03/29 13:28:35;;;;;;;0.30;0.30;;;;;;;;;;1833219;77;26326;-61
2022/03/29 13:31:04;;;;;;;0.90;0.20;;;;;;;;;;1837528;77;26851;-54
2022/03/29 13:33:32;;;;;;;0.28;0.28;;;;;;;;;;1825080;77;26908;-47
2022/03/29 13:36:01;;;;;;;0.30;0.20;;;;;;;;;;1836215;77;26986;-58
2022/03/29 13:38:28;;;;;;;0.30;0.30;;;;;;;;;;1818673;77;26741;-50
2022/03/29 13:40:56;;;;;;;0.17;0.17;;;;;;;;;;1829140;77;26768;-53
2022/03/29 13:43:23;;;;;;;0.20;0.20;;;;;;;;;;1824844;78;26325;-62
2022/03/29 13:45:50;;;;;;;0.10;0.10;;;;;;;;;;1834842;77;26271;-61
2022/03/29 13:48:17;;;;;;;1.37;0.30;;;;;;;;;;1828024;77;26307;-50
2022/03/29 13:50:45;;;;;;;0.20;0.20;;;;;;;;;;1807846;78;26257;-53
2022/03/29 13:53:13;;;;;;;0.20;0.20;;;;;;;;;;1825274;77;26289;-57
2022/03/29 13:55:41;;;;;;;0.42;0.20;;;;;;;;;;1830667;77;26333;-57
2022/03/29 13:58:08;;;;;;;0.30;0.30;;;;;;;;;;1837572;77;26718;-45
2022/03/29 14:00:36;;;;;;;0.30;0.20;;;;;;;;;;1825519;77;26309;-49
2022/03/29 14:03:06;;;;;;;1.17;0.30;;;;;;;;;;1824873;78;26350;-52
2022/03/29 14:05:33;;;;;;;0.30;0.20;;;;;;;;;;1827938;77;26270;-51
2022/03/29 14:08:00;;;;;;;0.20;0.20;;;;;;;;;;1838660;77;26318;-55
2022/03/29 14:10:27;;;;;;;0.40;0.20;;;;;;;;;;1839679;77;26675;-57
2022/03/29 14:12:55;;;;;;;0.20;0.20;;;;;;;;;;1836420;77;26740;-53
2022/03/29 14:15:23;;;;;;;1.47;0.30;;;;;;;;;;1841643;77;26744;-53
2022/03/29 14:17:50;;;;;;;0.20;0.20;;;;;;;;;;1836811;76;26297;-56
2022/03/29 14:20:18;;;;;;;0.30;0.30;;;;;;;;;;1837227;78;26324;-50
2022/03/29 14:22:45;;;;;;;0.15;0.15;;;;;;;;;;1837383;76;26694;-64
2022/03/29 14:25:13;;;;;;;0.13;0.13;;;;;;;;;;1838696;77;26327;-58
2022/03/29 14:27:41;;;;;;;0.20;0.20;;;;;;;;;;1840453;77;26222;-51
2022/03/29 14:30:09;;;;;;;0.20;0.20;;;;;;;;;;1850088;77;26341;-54
2022/03/29 14:32:37;;;;;;;0.20;0.20;;;;;;;;;;1834880;77;26327;-48
2022/03/29 14:35:05;;;;;;;0.25;0.25;;;;;;;;;;1835195;76;26352;-56
2022/03/29 14:37:36;;;;;;;0.25;0.25;;;;;;;;;;1841885;77;26230;-57
2022/03/29 14:40:05;;;;;;;0.20;0.20;;;;;;;;;;1835852;75;26375;-59
2022/03/29 14:42:32;;;;;;;0.23;0.20;;;;;;;;;;1828903;76;26739;-51
2022/03/29 14:45:01;;;;;;;0.20;0.20;;;;;;;;;;1838629;77;26649;-50
2022/03/29 14:47:29;;;;;;;0.40;0.40;;;;;;;;;;1834434;77;26297;-46
2022/03/29 14:49:56;;;;;;;0.30;0.30;;;;;;;;;;1834779;77;26407;-45
2022/03/29 14:52:24;;;;;;;0.13;0.13;;;;;;;;;;1834636;77;26359;-52
2022/03/29 14:54:51;;;;;;;0.35;0.35;;;;;;;;;;1834742;77;26285;-54
2022/03/29 14:57:18;;;;;;;0.23;0.23;;;;;;;;;;1841365;76;26259;-50
2022/03/29 14:59:45;;;;;;;0.15;0.15;;;;;;;;;;1836436;76;26277;-52
2022/03/29 15:02:13;;;;;;;0.28;0.28;;;;;;;;;;1837962;77;26954;-48
2022/03/29 15:04:40;;;;;;;0.23;0.23;;;;;;;;;;1834096;77;26373;-50
2022/03/29 15:07:08;;;;;;;0.20;0.20;;;;;;;;;;1835530;77;26282;-51
2022/03/29 15:09:37;;;;;;;0.30;0.30;;;;;;;;;;1827525;77;27490;-45
2022/03/29 15:12:04;;;;;;;0.30;0.30;;;;;;;;;;1825339;77;27122;-56